地図

経路データ

SID SEASON NUMBER BASIN SUBBASIN NAME ISO_TIME NATURE LAT LON WMO_WIND WMO_PRES WMO_AGENCY TRACK_TYPE DIST2LAND LANDFALL IFLAG USA_AGENCY USA_ATCF_ID USA_LAT USA_LON USA_RECORD USA_STATUS USA_WIND USA_PRES USA_SSHS USA_R34_NE USA_R34_SE USA_R34_SW USA_R34_NW USA_R50_NE USA_R50_SE USA_R50_SW USA_R50_NW USA_R64_NE USA_R64_SE USA_R64_SW USA_R64_NW USA_POCI USA_ROCI USA_RMW USA_EYE TOKYO_LAT TOKYO_LON TOKYO_GRADE TOKYO_WIND TOKYO_PRES TOKYO_R50_DIR TOKYO_R50_LONG TOKYO_R50_SHORT TOKYO_R30_DIR TOKYO_R30_LONG TOKYO_R30_SHORT TOKYO_LAND CMA_LAT CMA_LON CMA_CAT CMA_WIND CMA_PRES HKO_LAT HKO_LON HKO_CAT HKO_WIND HKO_PRES NEWDELHI_LAT NEWDELHI_LON NEWDELHI_GRADE NEWDELHI_WIND NEWDELHI_PRES NEWDELHI_CI NEWDELHI_DP NEWDELHI_POCI REUNION_LAT REUNION_LON REUNION_TYPE REUNION_WIND REUNION_PRES REUNION_TNUM REUNION_CI REUNION_RMW REUNION_R34_NE REUNION_R34_SE REUNION_R34_SW REUNION_R34_NW REUNION_R50_NE REUNION_R50_SE REUNION_R50_SW REUNION_R50_NW REUNION_R64_NE REUNION_R64_SE REUNION_R64_SW REUNION_R64_NW BOM_LAT BOM_LON BOM_TYPE BOM_WIND BOM_PRES BOM_TNUM BOM_CI BOM_RMW BOM_R34_NE BOM_R34_SE BOM_R34_SW BOM_R34_NW BOM_R50_NE BOM_R50_SE BOM_R50_SW BOM_R50_NW BOM_R64_NE BOM_R64_SE BOM_R64_SW BOM_R64_NW BOM_ROCI BOM_POCI BOM_EYE BOM_POS_METHOD BOM_PRES_METHOD NADI_LAT NADI_LON NADI_CAT NADI_WIND NADI_PRES WELLINGTON_LAT WELLINGTON_LON WELLINGTON_WIND WELLINGTON_PRES DS824_LAT DS824_LON DS824_STAGE DS824_WIND DS824_PRES TD9636_LAT TD9636_LON TD9636_STAGE TD9636_WIND TD9636_PRES TD9635_LAT TD9635_LON TD9635_WIND TD9635_PRES TD9635_ROCI NEUMANN_LAT NEUMANN_LON NEUMANN_CLASS NEUMANN_WIND NEUMANN_PRES MLC_LAT MLC_LON MLC_CLASS MLC_WIND MLC_PRES USA_GUST BOM_GUST BOM_GUST_PER REUNION_GUST REUNION_GUST_PER USA_SEAHGT USA_SEARAD_NE USA_SEARAD_SE USA_SEARAD_SW USA_SEARAD_NW STORM_SPEED STORM_DIR
1898275N11302 1898 48 NA NA NOT_NAMED 1898-10-02 06:00:00 TS 11.4000 -57.7000 50 hurdat_atl main 368 339 O_____________ hurdat_atl AL091898 11.4000 -57.7000 TS 50 0 7 296
1898275N11302 1898 48 NA NA NOT_NAMED 1898-10-02 09:00:00 TS 11.5501 -58.0149 main 342 315 P_____________ AL091898 11.5501 -58.0149 TS 50 0 7 297
1898275N11302 1898 48 NA NA NOT_NAMED 1898-10-02 12:00:00 TS 11.7000 -58.3000 50 hurdat_atl main 315 299 O_____________ hurdat_atl AL091898 11.7000 -58.3000 TS 50 0 6 300
1898275N11302 1898 48 NA NA NOT_NAMED 1898-10-02 15:00:00 TS 11.8499 -58.5426 main 299 280 P_____________ AL091898 11.8499 -58.5426 TS 50 0 6 302
1898275N11302 1898 48 NA NA NOT_NAMED 1898-10-02 18:00:00 TS 12.0000 -58.8000 50 hurdat_atl main 280 259 O_____________ hurdat_atl AL091898 12.0000 -58.8000 TS 50 0 7 297
1898275N11302 1898 48 NA NA NOT_NAMED 1898-10-02 21:00:00 TS 12.1425 -59.1350 main 259 242 P_____________ AL091898 12.1425 -59.1350 TS 50 0 7 294
1898275N11302 1898 48 NA NA NOT_NAMED 1898-10-03 00:00:00 TS 12.3000 -59.5000 50 hurdat_atl main 242 235 O_____________ hurdat_atl AL091898 12.3000 -59.5000 TS 50 0 8 298
1898275N11302 1898 48 NA CS NOT_NAMED 1898-10-03 03:00:00 TS 12.4999 -59.8275 main 240 234 P_____________ AL091898 12.4999 -59.8275 TS 50 0 8 300
1898275N11302 1898 48 NA CS NOT_NAMED 1898-10-03 06:00:00 TS 12.7000 -60.2000 50 hurdat_atl main 240 236 O_____________ hurdat_atl AL091898 12.7000 -60.2000 TS 50 0 9 293
1898275N11302 1898 48 NA CS NOT_NAMED 1898-10-03 09:00:00 TS 12.8575 -60.6701 main 248 246 P_____________ AL091898 12.8575 -60.6701 TS 50 0 10 287
1898275N11302 1898 48 NA CS NOT_NAMED 1898-10-03 12:00:00 TS 13.0000 -61.2000 50 hurdat_atl main 257 257 O_____________ hurdat_atl AL091898 13.0000 -61.2000 TS 50 0 11 285
1898275N11302 1898 48 NA CS NOT_NAMED 1898-10-03 15:00:00 TS 13.1424 -61.7426 main 268 268 P_____________ AL091898 13.1424 -61.7426 TS 50 0 11 286
1898275N11302 1898 48 NA CS NOT_NAMED 1898-10-03 18:00:00 TS 13.3000 -62.3000 50 hurdat_atl main 291 291 O_____________ hurdat_atl AL091898 13.3000 -62.3000 TS 50 0 11 288
1898275N11302 1898 48 NA CS NOT_NAMED 1898-10-03 21:00:00 TS 13.4923 -62.8426 main 313 313 P_____________ AL091898 13.4923 -62.8426 TS 50 0 11 291
1898275N11302 1898 48 NA CS NOT_NAMED 1898-10-04 00:00:00 TS 13.7000 -63.4000 50 hurdat_atl main 337 337 O_____________ hurdat_atl AL091898 13.7000 -63.4000 TS 50 0 12 290
1898275N11302 1898 48 NA CS NOT_NAMED 1898-10-04 03:00:00 TS 13.9075 -64.0000 main 369 369 P_____________ AL091898 13.9075 -64.0000 TS 50 0 12 289
1898275N11302 1898 48 NA CS NOT_NAMED 1898-10-04 06:00:00 TS 14.1000 -64.6000 50 hurdat_atl main 394 394 O_____________ hurdat_atl AL091898 14.1000 -64.6000 TS 50 0 12 287
1898275N11302 1898 48 NA CS NOT_NAMED 1898-10-04 09:00:00 TS 14.2573 -65.1502 main 416 395 P_____________ AL091898 14.2573 -65.1502 TS 50 0 11 286
1898275N11302 1898 48 NA CS NOT_NAMED 1898-10-04 12:00:00 TS 14.4000 -65.7000 50 hurdat_atl main 395 380 O_____________ hurdat_atl AL091898 14.4000 -65.7000 TS 50 0 11 285
1898275N11302 1898 48 NA CS NOT_NAMED 1898-10-04 15:00:00 TS 14.5574 -66.2925 main 369 358 P_____________ AL091898 14.5574 -66.2925 TS 50 0 12 284
1898275N11302 1898 48 NA CS NOT_NAMED 1898-10-04 18:00:00 TS 14.7000 -66.9000 50 hurdat_atl main 358 346 O_____________ hurdat_atl AL091898 14.7000 -66.9000 TS 50 0 12 282
1898275N11302 1898 48 NA CS NOT_NAMED 1898-10-04 21:00:00 TS 14.8074 -67.5076 main 348 341 P_____________ AL091898 14.8074 -67.5076 TS 50 0 12 280
1898275N11302 1898 48 NA CS NOT_NAMED 1898-10-05 00:00:00 TS 14.9000 -68.1000 50 hurdat_atl main 349 348 O_____________ hurdat_atl AL091898 14.9000 -68.1000 TS 50 0 11 280
1898275N11302 1898 48 NA CS NOT_NAMED 1898-10-05 03:00:00 TS 14.9998 -68.6576 main 349 342 P_____________ AL091898 14.9998 -68.6576 TS 50 0 11 281
1898275N11302 1898 48 NA CS NOT_NAMED 1898-10-05 06:00:00 TS 15.1000 -69.2000 50 hurdat_atl main 344 324 O_____________ hurdat_atl AL091898 15.1000 -69.2000 TS 50 0 11 280
1898275N11302 1898 48 NA CS NOT_NAMED 1898-10-05 09:00:00 TS 15.1924 -69.7576 main 318 282 P_____________ AL091898 15.1924 -69.7576 TS 50 0 11 281
1898275N11302 1898 48 NA CS NOT_NAMED 1898-10-05 12:00:00 TS 15.3000 -70.3000 50 hurdat_atl main 282 254 O_____________ hurdat_atl AL091898 15.3000 -70.3000 TS 50 0 10 284
1898275N11302 1898 48 NA CS NOT_NAMED 1898-10-05 15:00:00 TS 15.4498 -70.8075 main 254 224 P_____________ AL091898 15.4498 -70.8075 TS 50 0 10 287
1898275N11302 1898 48 NA CS NOT_NAMED 1898-10-05 18:00:00 TS 15.6000 -71.3000 50 hurdat_atl main 224 212 O_____________ hurdat_atl AL091898 15.6000 -71.3000 TS 50 0 10 285
1898275N11302 1898 48 NA CS NOT_NAMED 1898-10-05 21:00:00 TS 15.7149 -71.8075 main 216 211 P_____________ AL091898 15.7149 -71.8075 TS 50 0 10 282
1898275N11302 1898 48 NA CS NOT_NAMED 1898-10-06 00:00:00 TS 15.8000 -72.3000 50 hurdat_atl main 223 223 O_____________ hurdat_atl AL091898 15.8000 -72.3000 TS 50 0 9 278
1898275N11302 1898 48 NA CS NOT_NAMED 1898-10-06 03:00:00 TS 15.8498 -72.7501 main 250 241 P_____________ AL091898 15.8498 -72.7501 TS 50 0 9 277
1898275N11302 1898 48 NA CS NOT_NAMED 1898-10-06 06:00:00 TS 15.9000 -73.2000 50 hurdat_atl main 243 224 O_____________ hurdat_atl AL091898 15.9000 -73.2000 TS 50 0 9 279
1898275N11302 1898 48 NA CS NOT_NAMED 1898-10-06 09:00:00 TS 15.9999 -73.6924 main 224 212 P_____________ AL091898 15.9999 -73.6924 TS 50 0 10 282
1898275N11302 1898 48 NA CS NOT_NAMED 1898-10-06 12:00:00 TS 16.1000 -74.2000 50 hurdat_atl main 215 215 O_____________ hurdat_atl AL091898 16.1000 -74.2000 TS 50 0 10 279
1898275N11302 1898 48 NA CS NOT_NAMED 1898-10-06 15:00:00 TS 16.1575 -74.7151 main 218 217 P_____________ AL091898 16.1575 -74.7151 TS 50 0 10 276
1898275N11302 1898 48 NA CS NOT_NAMED 1898-10-06 18:00:00 TS 16.2000 -75.2000 50 hurdat_atl main 217 200 O_____________ hurdat_atl AL091898 16.2000 -75.2000 TS 50 0 9 276
1898275N11302 1898 48 NA CS NOT_NAMED 1898-10-06 21:00:00 TS 16.2498 -75.6150 main 200 180 P_____________ AL091898 16.2498 -75.6150 TS 50 0 8 277
1898275N11302 1898 48 NA CS NOT_NAMED 1898-10-07 00:00:00 TS 16.3000 -76.0000 50 hurdat_atl main 180 178 O_____________ hurdat_atl AL091898 16.3000 -76.0000 TS 50 0 8 276
1898275N11302 1898 48 NA CS NOT_NAMED 1898-10-07 03:00:00 TS 16.3349 -76.3926 main 178 151 P_____________ AL091898 16.3349 -76.3926 TS 50 0 8 277
1898275N11302 1898 48 NA CS NOT_NAMED 1898-10-07 06:00:00 TS 16.4000 -76.8000 50 hurdat_atl main 151 134 O_____________ hurdat_atl AL091898 16.4000 -76.8000 TS 50 0 9 283
1898275N11302 1898 48 NA CS NOT_NAMED 1898-10-07 09:00:00 TS 16.5351 -77.2649 main 134 119 P_____________ AL091898 16.5351 -77.2649 TS 50 0 9 289
1898275N11302 1898 48 NA CS NOT_NAMED 1898-10-07 12:00:00 TS 16.7000 -77.7000 50 hurdat_atl main 123 119 O_____________ hurdat_atl AL091898 16.7000 -77.7000 TS 50 0 8 293
1898275N11302 1898 48 NA CS NOT_NAMED 1898-10-07 15:00:00 TS 16.8423 -78.0226 main 127 113 P_____________ AL091898 16.8423 -78.0226 TS 50 0 6 298
1898275N11302 1898 48 NA CS NOT_NAMED 1898-10-07 18:00:00 TS 17.0000 -78.3000 50 hurdat_atl main 119 112 O_____________ hurdat_atl AL091898 17.0000 -78.3000 TS 50 0 7 302
1898275N11302 1898 48 NA CS NOT_NAMED 1898-10-07 21:00:00 TS 17.1925 -78.6000 main 113 99 P_____________ AL091898 17.1925 -78.6000 TS 50 0 7 305
1898275N11302 1898 48 NA CS NOT_NAMED 1898-10-08 00:00:00 TS 17.4000 -78.9000 50 hurdat_atl main 103 100 O_____________ hurdat_atl AL091898 17.4000 -78.9000 TS 50 0 7 305
1898275N11302 1898 48 NA CS NOT_NAMED 1898-10-08 03:00:00 TS 17.5925 -79.2076 main 108 108 P_____________ AL091898 17.5925 -79.2076 TS 50 0 7 305
1898275N11302 1898 48 NA CS NOT_NAMED 1898-10-08 06:00:00 TS 17.8000 -79.5000 50 hurdat_atl main 124 124 O_____________ hurdat_atl AL091898 17.8000 -79.5000 TS 50 0 7 311
1898275N11302 1898 48 NA CS NOT_NAMED 1898-10-08 09:00:00 TS 18.0575 -79.7650 main 148 148 P_____________ AL091898 18.0575 -79.7650 TS 50 0 7 316
1898275N11302 1898 48 NA CS NOT_NAMED 1898-10-08 12:00:00 TS 18.3000 -80.0000 50 hurdat_atl main 169 169 O_____________ hurdat_atl AL091898 18.3000 -80.0000 TS 50 0 6 314
1898275N11302 1898 48 NA CS NOT_NAMED 1898-10-08 15:00:00 TS 18.4499 -80.2002 main 191 191 P_____________ AL091898 18.4499 -80.2002 TS 50 0 5 308
1898275N11302 1898 48 NA CS NOT_NAMED 1898-10-08 18:00:00 TS 18.6000 -80.4000 50 hurdat_atl main 215 215 O_____________ hurdat_atl AL091898 18.6000 -80.4000 TS 50 0 6 312
1898275N11302 1898 48 NA CS NOT_NAMED 1898-10-08 21:00:00 TS 18.8275 -80.6500 main 241 241 P_____________ AL091898 18.8275 -80.6500 TS 50 0 7 317
1898275N11302 1898 48 NA CS NOT_NAMED 1898-10-09 00:00:00 TS 19.1000 -80.9000 50 hurdat_atl main 281 281 O_____________ hurdat_atl AL091898 19.1000 -80.9000 TS 50 0 7 323
1898275N11302 1898 48 NA CS NOT_NAMED 1898-10-09 03:00:00 TS 19.3925 -81.1076 main 281 246 P_____________ AL091898 19.3925 -81.1076 TS 50 0 7 328
1898275N11302 1898 48 NA CS NOT_NAMED 1898-10-09 06:00:00 TS 19.7000 -81.3000 50 hurdat_atl main 246 206 O_____________ hurdat_atl AL091898 19.7000 -81.3000 TS 50 0 7 328
1898275N11302 1898 48 NA CS NOT_NAMED 1898-10-09 09:00:00 TS 20.0150 -81.5149 main 206 172 P_____________ AL091898 20.0150 -81.5149 TS 50 0 7 303
1898275N11302 1898 48 NA CS NOT_NAMED 1898-10-09 12:00:00 TS 20.0667 -81.9000 50 hurdat_atl main 172 162 O____________O hurdat_atl AL091898 20.3000 -81.7000 TS 50 0 18.2000 -83.5000 TD 30 6 282
1898275N11302 1898 48 NA CS NOT_NAMED 1898-10-09 15:00:00 TS 20.1460 -82.1551 main 158 133 P____________P AL091898 20.5075 -81.8151 TS 50 0 18.7000 -83.5150 TD 30 5 299
1898275N11302 1898 48 NA CS NOT_NAMED 1898-10-09 18:00:00 TS 20.2909 -82.3364 50 hurdat_atl main 133 105 O____________O hurdat_atl AL091898 20.7000 -81.9000 TS 50 0 19.2000 -83.5000 TD 30 5 321
1898275N11302 1898 48 NA CS NOT_NAMED 1898-10-09 21:00:00 TS 20.5283 -82.4816 main 105 73 P____________P AL091898 20.9425 -82.0075 TS 50 0 19.7000 -83.4299 TD 32 6 345
1898275N11302 1898 48 NA CS NOT_NAMED 1898-10-10 00:00:00 TS 20.8667 -82.5000 50 hurdat_atl main 63 38 O____________O hurdat_atl AL091898 21.2000 -82.1000 TS 50 0 20.2000 -83.3000 TS 35 7 359
1898275N11302 1898 48 NA CS NOT_NAMED 1898-10-10 03:00:00 TS 21.1950 -82.4817 main 38 15 P____________P AL091898 21.4425 -82.1650 TS 50 0 20.7000 -83.1150 TS 40 7 5
1898275N11302 1898 48 NA CS NOT_NAMED 1898-10-10 06:00:00 TS 21.5333 -82.4333 50 hurdat_atl main 15 10 O____________O hurdat_atl AL091898 21.7000 -82.2000 TS 50 0 21.2000 -82.9000 TS 45 7 7
1898275N11302 1898 48 NA CS NOT_NAMED 1898-10-10 09:00:00 TS 21.9024 -82.3866 main 30 24 P____________P AL091898 21.9925 -82.2150 TS 50 0 21.7223 -82.7297 TS 50 7 10
1898275N11302 1898 48 NA CS NOT_NAMED 1898-10-10 12:00:00 TS 22.2667 -82.3000 50 hurdat_atl main 15 0 O____________O hurdat_atl AL091898 22.3000 -82.2000 TS 50 0 22.2000 -82.5000 TS 55 7 16
1898275N11302 1898 48 NA CS NOT_NAMED 1898-10-10 15:00:00 TS 22.5958 -82.1707 main 11 0 P____________P AL091898 22.6074 -82.1874 TS 47 0 22.5725 -82.1373 TS 50 7 26
1898275N11302 1898 48 NA NA NOT_NAMED 1898-10-10 18:00:00 TS 22.9000 -81.9667 45 hurdat_atl main 0 0 O____________O hurdat_atl AL091898 22.9000 -82.1000 TS 45 0 22.9000 -81.7000 TS 45 7 37
1898275N11302 1898 48 NA NA NOT_NAMED 1898-10-10 21:00:00 TS 23.1883 -81.6874 main 11 11 P____________P AL091898 23.1574 -81.9024 TS 47 0 23.2499 -81.2573 TS 50 8 46
1898275N11302 1898 48 NA NA NOT_NAMED 1898-10-11 00:00:00 TS 23.4667 -81.3333 50 hurdat_atl main 44 44 O____________O hurdat_atl AL091898 23.4000 -81.6000 TS 50 0 23.6000 -80.8000 TS 55 9 51
1898275N11302 1898 48 NA NA NOT_NAMED 1898-10-11 03:00:00 TS 23.7450 -80.9290 main 78 78 P____________P AL091898 23.6425 -81.2224 TS 52 0 23.9499 -80.3423 TS 55 10 53
1898275N11302 1898 48 NA NA NOT_NAMED 1898-10-11 06:00:00 TS 24.0333 -80.5000 55 hurdat_atl main 111 91 O____________O hurdat_atl AL091898 23.9000 -80.8000 TS 55 0 24.3000 -79.9000 TS 55 9 54
1898275N11302 1898 48 NA NA NOT_NAMED 1898-10-11 09:00:00 TS 24.2922 -80.1166 main 94 82 P____________P AL091898 24.1249 -80.3992 TS 57 0 24.6267 -79.5513 TS 55 10 49
1898275N11302 1898 48 NA NA NOT_NAMED 1898-10-11 12:00:00 TS 24.6667 -79.7000 60 hurdat_atl main 83 83 O____________O hurdat_atl AL091898 24.5000 -80.0000 TS 60 0 25.0000 -79.1000 TS 55 13 41
1898275N11302 1898 48 NA NA NOT_NAMED 1898-10-11 15:00:00 TS 25.2608 -79.2037 main 105 97 P____________P AL091898 25.1522 -79.6291 TS 60 0 25.4780 -78.3529 TS 55 17 36
1898275N11302 1898 48 NA NA NOT_NAMED 1898-10-11 18:00:00 TS 26.0000 -78.6333 60 hurdat_atl main 112 112 O____________O hurdat_atl AL091898 26.0000 -79.2000 TS 60 0 26.0000 -77.5000 TS 55 19 35
1898275N11302 1898 48 NA NA NOT_NAMED 1898-10-11 21:00:00 TS 26.8096 -78.0183 main 189 189 P____________P AL091898 26.9650 -78.6382 TS 60 0 26.4988 -76.7787 TS 55 20 36
1898275N11302 1898 48 NA NA NOT_NAMED 1898-10-12 00:00:00 TS 27.6000 -77.3333 60 hurdat_atl main 281 281 O____________O hurdat_atl AL091898 27.9000 -78.0000 TS 60 0 27.0000 -76.0000 TS 55 19 42
1898275N11302 1898 48 NA NA NOT_NAMED 1898-10-12 03:00:00 TS 28.2298 -76.5880 main 369 369 P____________P AL091898 28.5946 -77.3635 TS 60 0 27.5000 -75.0370 TS 52 18 43
1898275N11302 1898 48 NA NA NOT_NAMED 1898-10-12 06:00:00 TS 28.8727 -75.9636 60 hurdat_atl main 440 440 O____________O hurdat_atl AL091898 29.2000 -76.7000 TS 60 0 28.0000 -74.0000 TS 50 17 37
1898275N11302 1898 48 NA NA NOT_NAMED 1898-10-12 09:00:00 TS 29.5796 -75.4267 main 510 490 P____________P AL091898 29.8492 -76.0361 TS 57 0 28.5010 -72.9892 TS 45 17 32
1898275N11302 1898 48 NA NA NOT_NAMED 1898-10-12 12:00:00 TS 30.3333 -74.9333 55 hurdat_atl main 496 442 O____________O hurdat_atl AL091898 30.5000 -75.3000 TS 55 0 29.0000 -72.0000 TS 40 18 29
1898275N11302 1898 48 NA NA NOT_NAMED 1898-10-12 15:00:00 TS 31.1270 -74.4506 main 442 420 P_____________ AL091898 31.1270 -74.4506 TS 52 0 TS 19 40
1898275N11302 1898 48 NA NA NOT_NAMED 1898-10-12 18:00:00 TS 31.8000 -73.5000 50 hurdat_atl main 426 421 O_____________ hurdat_atl AL091898 31.8000 -73.5000 TS 50 0 23 48
1898275N11302 1898 48 NA NA NOT_NAMED 1898-10-12 21:00:00 TS 32.6455 -72.4375 main 441 435 P_____________ AL091898 32.6455 -72.4375 TS 50 0 24 48
1898275N11302 1898 48 NA NA NOT_NAMED 1898-10-13 00:00:00 TS 33.4000 -71.4000 50 hurdat_atl main 460 460 O_____________ hurdat_atl AL091898 33.4000 -71.4000 TS 50 0 20 53
1898275N11302 1898 48 NA NA NOT_NAMED 1898-10-13 03:00:00 TS 33.8236 -70.5594 main 498 498 P_____________ AL091898 33.8236 -70.5594 TS 50 0 15 62
1898275N11302 1898 48 NA NA NOT_NAMED 1898-10-13 06:00:00 TS 34.1000 -69.8000 50 hurdat_atl main 551 551 O_____________ hurdat_atl AL091898 34.1000 -69.8000 TS 50 0 14 65
1898275N11302 1898 48 NA NA NOT_NAMED 1898-10-13 09:00:00 TS 34.4221 -68.9922 main 610 610 P_____________ AL091898 34.4221 -68.9922 TS 50 0 14 66
1898275N11302 1898 48 NA NA NOT_NAMED 1898-10-13 12:00:00 TS 34.7000 -68.2000 50 hurdat_atl main 672 672 O_____________ hurdat_atl AL091898 34.7000 -68.2000 TS 50 0 14 69
1898275N11302 1898 48 NA NA NOT_NAMED 1898-10-13 15:00:00 TS 34.9220 -67.4344 main 739 739 P_____________ AL091898 34.9220 -67.4344 TS 50 0 13 72
1898275N11302 1898 48 NA NA NOT_NAMED 1898-10-13 18:00:00 TS 35.1000 -66.7000 50 hurdat_atl main 788 784 O_____________ hurdat_atl AL091898 35.1000 -66.7000 TS 50 0 12 74
1898275N11302 1898 48 NA NA NOT_NAMED 1898-10-13 21:00:00 TS 35.2495 -65.9918 main 802 792 P_____________ AL091898 35.2495 -65.9918 TS 50 0 12 75
1898275N11302 1898 48 NA NA NOT_NAMED 1898-10-14 00:00:00 TS 35.4000 -65.3000 50 hurdat_atl main 810 810 O_____________ hurdat_atl AL091898 35.4000 -65.3000 TS 50 0 12 73
1898275N11302 1898 48 NA NA NOT_NAMED 1898-10-14 03:00:00 TS 35.5923 -64.5850 main 824 824 P_____________ AL091898 35.5923 -64.5850 TS 50 0 12 71
1898275N11302 1898 48 NA NA NOT_NAMED 1898-10-14 06:00:00 TS 35.8000 -63.9000 50 hurdat_atl main 841 841 O_____________ hurdat_atl AL091898 35.8000 -63.9000 TS 50 0 11 71
1898275N11302 1898 48 NA NA NOT_NAMED 1898-10-14 09:00:00 TS 35.9546 -63.2762 main 851 839 P_____________ AL091898 35.9546 -63.2762 TS 50 0 10 68
1898275N11302 1898 48 NA NA NOT_NAMED 1898-10-14 12:00:00 TS 36.2000 -62.7000 50 hurdat_atl main 841 811 O_____________ hurdat_atl AL091898 36.2000 -62.7000 TS 50 0 11 53
1898275N11302 1898 48 NA NA NOT_NAMED 1898-10-14 15:00:00 TS 36.6405 -62.1473 main 814 767 P_____________ AL091898 36.6405 -62.1473 TS 50 0 13 41
1898275N11302 1898 48 NA NA NOT_NAMED 1898-10-14 18:00:00 TS 37.2000 -61.6000 50 hurdat_atl main 767 O_____________ hurdat_atl AL091898 37.2000 -61.6000 TS 50 0 14 38

IBTrACS Databaseについて

本データベースは、米国NOAAが公開する1842年以降の世界の熱帯低気圧のベストトラックデータアーカイブInternational Best Track Archive for Climate Stewardship (IBTrACS)を、ウェブで閲覧しやすい形式に変換したものです。

最終更新日:2021-10-08